Terminal Aerodrome Forecast
Issued by NWS

Home | Current Version | Previous Version | Text Only | Print | Product List | Glossary On
Versions: 1 2 3 4 5 6 7 8 9 10 11 12 13 14 15 16 17 18 19 20 21 22
000
FTUS41 KCAR 291720
TAFBHB
TAF
KBHB 291720Z 2918/3018 12004KT P6SM VCSH SCT030 BKN045
     FM292300 VRB02KT P6SM SCT045
     FM300600 VRB03KT 2SM BR SCT003
     FM301100 28005KT P6SM SCT250=

USA.gov is the U.S. government's official web portal to all federal, state and local government web resources and services.